createdAt,value
2018-07-26T00:01:48.298Z,62.50
2018-07-26T00:04:16.465Z,62.70
2018-07-26T00:06:44.592Z,62.80
2018-07-26T00:09:12.746Z,62.80
2018-07-26T00:11:41.154Z,63.00
2018-07-26T00:14:09.283Z,63.10
2018-07-26T00:16:37.430Z,64.00
2018-07-26T00:19:05.564Z,63.20
2018-07-26T00:21:33.720Z,63.10
2018-07-26T00:24:01.827Z,63.20
2018-07-26T00:26:29.958Z,63.20
2018-07-26T00:28:58.081Z,63.30
2018-07-26T00:31:26.223Z,63.40
2018-07-26T00:33:54.350Z,63.30
2018-07-26T00:36:22.480Z,63.40
2018-07-26T00:38:50.649Z,63.50
2018-07-26T00:41:18.804Z,63.50
2018-07-26T00:43:46.965Z,63.60
2018-07-26T00:46:15.103Z,63.70
2018-07-26T00:48:43.295Z,63.70
2018-07-26T00:51:11.380Z,63.70
2018-07-26T00:53:39.544Z,63.80
2018-07-26T00:56:07.691Z,63.80
2018-07-26T00:58:35.814Z,63.80
2018-07-26T01:01:03.966Z,63.90
2018-07-26T01:03:32.093Z,63.90
2018-07-26T01:06:00.238Z,64.00
2018-07-26T01:08:28.369Z,64.10
2018-07-26T01:10:56.501Z,64.20
2018-07-26T01:13:24.629Z,64.30
2018-07-26T01:15:52.768Z,64.50
2018-07-26T01:18:20.893Z,65.40
2018-07-26T01:20:49.048Z,64.60
2018-07-26T01:23:17.169Z,64.60
2018-07-26T01:25:45.337Z,64.70
2018-07-26T01:28:13.465Z,64.80
2018-07-26T01:30:41.589Z,64.90
2018-07-26T01:33:09.730Z,64.80
2018-07-26T01:35:37.871Z,64.80
2018-07-26T01:38:06.086Z,64.80
2018-07-26T01:40:34.204Z,64.80
2018-07-26T01:43:13.713Z,64.80
2018-07-26T01:45:41.850Z,64.80
2018-07-26T01:48:09.987Z,64.80
2018-07-26T01:50:38.114Z,64.80
2018-07-26T01:53:06.267Z,64.90
2018-07-26T01:55:34.402Z,64.80
2018-07-26T01:58:02.558Z,64.70
2018-07-26T02:02:58.595Z,64.80
2018-07-26T02:05:26.765Z,64.80
2018-07-26T02:10:22.826Z,64.90
2018-07-26T02:12:51.057Z,64.90
2018-07-26T02:15:19.222Z,65.00
2018-07-26T02:17:47.390Z,65.00
2018-07-26T02:20:15.536Z,65.10
2018-07-26T02:22:43.665Z,65.20
2018-07-26T02:25:11.782Z,65.20
2018-07-26T02:27:39.923Z,65.40
2018-07-26T02:30:08.054Z,65.40
2018-07-26T02:32:36.243Z,65.50
2018-07-26T02:35:04.373Z,65.60
2018-07-26T02:37:32.531Z,65.50
2018-07-26T02:42:28.560Z,65.70
2018-07-26T02:47:24.600Z,65.70
2018-07-26T02:49:52.739Z,65.70
2018-07-26T02:52:20.894Z,65.70
2018-07-26T02:54:49.033Z,65.50
2018-07-26T02:57:17.194Z,65.60
2018-07-26T02:59:45.342Z,65.70
2018-07-26T03:02:13.621Z,65.70
2018-07-26T03:04:41.768Z,65.70
2018-07-26T03:07:09.966Z,65.70
2018-07-26T03:09:38.061Z,65.70
2018-07-26T03:12:06.220Z,65.80
2018-07-26T03:14:39.794Z,65.80
2018-07-26T03:17:07.942Z,65.90
2018-07-26T03:19:36.089Z,66.00
2018-07-26T03:22:04.249Z,66.10
2018-07-26T03:24:32.384Z,66.20
2018-07-26T03:27:00.519Z,66.30
2018-07-26T03:29:28.662Z,66.40
2018-07-26T03:31:56.809Z,66.40
2018-07-26T03:34:24.961Z,66.50
2018-07-26T03:36:53.270Z,66.60
2018-07-26T03:39:21.415Z,66.70
2018-07-26T03:41:49.530Z,66.70
2018-07-26T03:44:17.671Z,66.70
2018-07-26T03:46:46.210Z,67.70
2018-07-26T03:49:14.349Z,67.00
2018-07-26T03:51:42.498Z,67.90
2018-07-26T03:54:10.650Z,67.10
2018-07-26T03:56:38.780Z,67.20
2018-07-26T03:59:06.925Z,67.20
2018-07-26T04:01:35.062Z,67.30
2018-07-26T04:04:03.205Z,67.30
2018-07-26T04:06:31.334Z,68.10
2018-07-26T04:08:59.478Z,67.40
2018-07-26T04:11:27.668Z,68.20
2018-07-26T04:13:55.816Z,67.50
2018-07-26T04:16:23.930Z,67.50
2018-07-26T04:18:52.075Z,67.50
2018-07-26T04:21:20.212Z,67.40
2018-07-26T04:23:48.345Z,67.50
2018-07-26T04:26:16.477Z,67.40
2018-07-26T04:28:44.639Z,67.50
2018-07-26T04:31:12.777Z,67.50
2018-07-26T04:33:40.933Z,67.70
2018-07-26T04:36:09.080Z,67.80
2018-07-26T04:38:37.347Z,67.90
2018-07-26T04:41:05.482Z,68.00
2018-07-26T04:43:33.726Z,68.00
2018-07-26T04:46:01.902Z,68.20
2018-07-26T04:48:30.025Z,68.30
2018-07-26T04:50:58.178Z,68.30
2018-07-26T04:53:26.306Z,68.40
2018-07-26T04:55:54.441Z,68.40
2018-07-26T04:58:22.571Z,68.50
2018-07-26T05:00:50.722Z,68.70
2018-07-26T05:03:18.884Z,69.80
2018-07-26T05:05:47.078Z,69.10
2018-07-26T05:08:15.310Z,69.30
2018-07-26T05:10:43.498Z,69.40
2018-07-26T05:13:11.631Z,69.30
2018-07-26T05:15:40.019Z,69.40
2018-07-26T05:18:08.898Z,69.50
2018-07-26T05:20:37.037Z,70.20
2018-07-26T05:23:05.287Z,70.20
2018-07-26T05:25:33.454Z,69.30
2018-07-26T05:28:01.567Z,69.30
2018-07-26T05:30:29.726Z,69.30
2018-07-26T05:32:57.867Z,69.40
2018-07-26T05:35:26.067Z,69.40
2018-07-26T05:37:54.303Z,69.60
2018-07-26T05:40:23.565Z,69.60
2018-07-26T05:42:51.689Z,69.80
2018-07-26T05:45:19.829Z,69.80
2018-07-26T05:47:47.966Z,69.70
2018-07-26T05:50:16.102Z,69.40
2018-07-26T05:52:44.254Z,69.50
2018-07-26T05:55:12.383Z,69.50
2018-07-26T05:57:40.506Z,69.60
2018-07-26T06:00:11.415Z,69.50
2018-07-26T06:02:39.529Z,69.80
2018-07-26T06:05:07.981Z,70.70
2018-07-26T06:07:36.136Z,70.00
2018-07-26T06:10:05.311Z,70.30
2018-07-26T06:12:33.465Z,70.20
2018-07-26T06:15:01.624Z,70.30
2018-07-26T06:17:29.809Z,70.20
2018-07-26T06:19:57.938Z,70.00
2018-07-26T06:22:26.089Z,69.90
2018-07-26T06:24:54.214Z,70.00
2018-07-26T06:27:22.355Z,70.00
2018-07-26T06:29:50.531Z,70.10
2018-07-26T06:32:18.676Z,70.10
2018-07-26T06:34:46.806Z,70.10
2018-07-26T06:37:14.958Z,70.20
2018-07-26T06:39:43.098Z,71.00
2018-07-26T06:42:11.237Z,70.20
2018-07-26T06:44:39.369Z,70.40
2018-07-26T06:47:07.543Z,70.40
2018-07-26T06:49:35.662Z,70.40
2018-07-26T06:52:03.806Z,70.60
2018-07-26T06:54:31.941Z,70.80
2018-07-26T06:57:00.412Z,70.80
2018-07-26T06:59:28.545Z,70.60
2018-07-26T07:01:56.678Z,70.60
2018-07-26T07:04:24.817Z,70.30
2018-07-26T07:06:52.979Z,70.20
2018-07-26T07:09:21.120Z,70.10
2018-07-26T07:11:49.440Z,69.80
2018-07-26T07:14:17.617Z,69.40
2018-07-26T07:16:45.762Z,69.00
2018-07-26T07:19:13.910Z,68.70
2018-07-26T07:21:42.060Z,68.50
2018-07-26T07:24:12.139Z,68.20
2018-07-26T07:26:40.275Z,67.90
2018-07-26T07:29:08.565Z,67.80
2018-07-26T07:31:36.702Z,67.70
2018-07-26T07:34:04.845Z,68.50
2018-07-26T07:39:01.071Z,68.10
2018-07-26T07:41:29.204Z,68.40
2018-07-26T07:43:57.349Z,68.60
2018-07-26T07:46:25.481Z,68.60
2018-07-26T07:48:53.613Z,68.50
2018-07-26T07:51:21.758Z,68.50
2018-07-26T07:53:49.918Z,68.70
2018-07-26T07:56:18.053Z,68.50
2018-07-26T07:58:46.191Z,68.60
2018-07-26T08:01:14.381Z,68.60
2018-07-26T08:03:42.537Z,68.30
2018-07-26T08:06:10.827Z,68.20
2018-07-26T08:08:38.958Z,68.10
2018-07-26T08:11:07.114Z,67.70
2018-07-26T08:13:35.234Z,67.00
2018-07-26T08:16:03.494Z,66.40
2018-07-26T08:18:31.645Z,66.30
2018-07-26T08:20:59.815Z,67.30
2018-07-26T08:23:27.936Z,66.60
2018-07-26T08:25:56.073Z,66.30
2018-07-26T08:28:24.341Z,66.10
2018-07-26T08:30:52.497Z,65.60
2018-07-26T08:33:20.636Z,64.80
2018-07-26T08:35:48.845Z,65.00
2018-07-26T08:38:17.000Z,65.00
2018-07-26T08:40:45.143Z,64.70
2018-07-26T08:43:13.282Z,64.60
2018-07-26T08:45:41.508Z,64.20
2018-07-26T08:48:09.707Z,63.40
2018-07-26T08:50:37.795Z,63.30
2018-07-26T08:53:06.009Z,63.40
2018-07-26T08:55:34.178Z,62.90
2018-07-26T08:58:02.343Z,62.80
2018-07-26T09:00:30.478Z,62.60
2018-07-26T09:02:58.687Z,61.60
2018-07-26T09:05:26.783Z,61.20
2018-07-26T09:07:54.952Z,61.00
2018-07-26T09:10:23.070Z,59.70
2018-07-26T09:12:51.207Z,58.10
2018-07-26T09:15:19.325Z,56.90
2018-07-26T09:17:47.449Z,55.90
2018-07-26T09:20:15.610Z,55.70
2018-07-26T09:22:43.735Z,54.40
2018-07-26T09:25:11.894Z,53.60
2018-07-26T09:27:40.019Z,52.60
2018-07-26T09:30:09.154Z,51.80
2018-07-26T09:32:37.329Z,51.30
2018-07-26T09:35:05.457Z,50.00
2018-07-26T09:37:33.647Z,49.00
2018-07-26T09:40:01.774Z,48.10
2018-07-26T09:42:30.138Z,47.20
2018-07-26T09:44:58.283Z,46.60
2018-07-26T09:47:26.490Z,46.00
2018-07-26T09:49:54.680Z,46.20
2018-07-26T09:52:22.801Z,46.50
2018-07-26T09:54:50.980Z,46.10
2018-07-26T09:57:19.043Z,46.00
2018-07-26T09:59:47.158Z,45.10
2018-07-26T10:02:15.309Z,44.80
2018-07-26T10:04:43.458Z,44.00
2018-07-26T10:07:11.613Z,42.80
2018-07-26T10:09:39.744Z,41.70
2018-07-26T10:12:08.065Z,42.10
2018-07-26T10:14:36.207Z,41.60
2018-07-26T10:17:04.342Z,40.90
2018-07-26T10:19:32.449Z,41.00
2018-07-26T10:22:00.604Z,40.90
2018-07-26T10:24:28.739Z,40.00
2018-07-26T10:26:56.870Z,39.20
2018-07-26T10:29:24.997Z,39.20
2018-07-26T10:31:53.162Z,39.30
2018-07-26T10:34:21.285Z,39.50
2018-07-26T10:36:49.422Z,39.60
2018-07-26T10:39:17.613Z,39.90
2018-07-26T10:41:45.775Z,39.70
2018-07-26T10:44:13.904Z,39.70
2018-07-26T10:46:42.047Z,38.70
2018-07-26T10:49:10.237Z,38.60
2018-07-26T10:51:38.403Z,38.30
2018-07-26T10:54:06.662Z,38.80
2018-07-26T10:56:34.801Z,38.40
2018-07-26T10:59:02.924Z,37.70
2018-07-26T11:01:31.059Z,37.70
2018-07-26T11:03:59.186Z,37.80
2018-07-26T11:06:27.320Z,37.90
2018-07-26T11:08:55.462Z,36.90
2018-07-26T11:11:23.586Z,36.60
2018-07-26T11:13:51.746Z,37.00
2018-07-26T11:16:19.880Z,37.80
2018-07-26T11:18:49.241Z,37.70
2018-07-26T11:21:17.366Z,37.60
2018-07-26T11:23:45.495Z,37.60
2018-07-26T11:26:13.666Z,37.30
2018-07-26T11:28:41.830Z,37.00
2018-07-26T11:31:09.946Z,37.60
2018-07-26T11:33:38.118Z,38.10
2018-07-26T11:36:06.248Z,39.00
2018-07-26T11:38:34.426Z,39.20
2018-07-26T11:41:02.562Z,39.20
2018-07-26T11:43:30.694Z,38.40
2018-07-26T11:45:58.863Z,37.80
2018-07-26T11:50:54.890Z,36.80
2018-07-26T11:55:50.922Z,37.80
2018-07-26T11:58:19.067Z,37.40
2018-07-26T12:00:47.215Z,37.60
2018-07-26T12:03:15.423Z,37.70
2018-07-26T12:05:43.594Z,36.90
2018-07-26T12:08:11.764Z,36.20
2018-07-26T12:10:39.866Z,36.00
2018-07-26T12:13:08.085Z,35.60
2018-07-26T12:15:36.213Z,36.20
2018-07-26T12:18:04.344Z,37.20
2018-07-26T12:20:32.486Z,37.40
2018-07-26T12:23:00.651Z,36.70
2018-07-26T12:25:28.756Z,36.30
2018-07-26T12:27:56.918Z,36.20
2018-07-26T12:30:25.062Z,35.60
2018-07-26T12:32:53.179Z,35.40
2018-07-26T12:35:21.320Z,35.90
2018-07-26T12:37:49.446Z,35.80
2018-07-26T12:40:17.629Z,36.00
2018-07-26T12:42:45.765Z,36.20
2018-07-26T12:45:13.914Z,36.20
2018-07-26T12:47:42.056Z,36.10
2018-07-26T12:50:10.222Z,36.20
2018-07-26T12:52:38.413Z,36.00
2018-07-26T12:55:06.546Z,35.90
2018-07-26T12:57:34.689Z,35.10
2018-07-26T13:00:02.839Z,35.00
2018-07-26T13:02:31.001Z,34.80
2018-07-26T13:04:59.317Z,34.30
2018-07-26T13:07:27.445Z,34.20
2018-07-26T13:09:56.012Z,34.40
2018-07-26T13:12:24.199Z,34.50
2018-07-26T13:14:52.410Z,34.60
2018-07-26T13:17:20.626Z,34.60
2018-07-26T13:19:48.752Z,34.30
2018-07-26T13:22:16.922Z,33.90
2018-07-26T13:24:45.271Z,34.20
2018-07-26T13:27:13.394Z,34.40
2018-07-26T13:29:41.528Z,34.30
2018-07-26T13:32:10.017Z,34.00
2018-07-26T13:34:38.139Z,33.70
2018-07-26T13:37:06.271Z,33.50
2018-07-26T13:39:34.501Z,33.20
2018-07-26T13:42:02.634Z,32.80
2018-07-26T13:44:30.835Z,33.20
2018-07-26T13:46:59.234Z,33.50
2018-07-26T13:49:27.437Z,34.00
2018-07-26T13:51:55.578Z,34.30
2018-07-26T13:54:24.537Z,34.00
2018-07-26T13:56:52.669Z,33.50
2018-07-26T13:59:20.947Z,32.60
2018-07-26T14:04:17.149Z,32.30
2018-07-26T14:06:45.286Z,32.70
2018-07-26T14:09:13.436Z,32.50
2018-07-26T14:11:42.117Z,32.10
2018-07-26T14:14:10.492Z,31.90
2018-07-26T14:16:38.678Z,31.90
2018-07-26T14:19:07.511Z,32.60
2018-07-26T14:21:35.636Z,33.00
2018-07-26T14:24:08.190Z,32.90
2018-07-26T14:26:36.334Z,33.10
2018-07-26T14:29:04.535Z,33.10
2018-07-26T14:31:32.690Z,33.10
2018-07-26T14:34:00.820Z,32.80
2018-07-26T14:36:28.968Z,32.30
2018-07-26T14:38:57.126Z,32.30
2018-07-26T14:41:25.258Z,32.50
2018-07-26T14:43:53.393Z,32.40
2018-07-26T14:46:21.547Z,32.30
2018-07-26T14:48:49.683Z,32.60
2018-07-26T14:51:17.823Z,33.30
2018-07-26T14:53:46.969Z,33.40
2018-07-26T14:56:15.118Z,32.80
2018-07-26T14:58:43.259Z,32.20
2018-07-26T15:01:11.375Z,31.90
2018-07-26T15:03:39.502Z,31.50
2018-07-26T15:06:07.768Z,31.80
2018-07-26T15:08:35.777Z,31.80
2018-07-26T15:11:04.022Z,31.60
2018-07-26T15:13:32.152Z,31.00
2018-07-26T15:16:00.330Z,30.40
2018-07-26T15:18:28.457Z,30.40
2018-07-26T15:20:56.581Z,30.20
2018-07-26T15:23:24.806Z,30.10
2018-07-26T15:25:52.976Z,30.60
2018-07-26T15:28:21.110Z,31.80
2018-07-26T15:30:49.254Z,31.20
2018-07-26T15:33:17.382Z,31.20
2018-07-26T15:35:45.538Z,30.50
2018-07-26T15:38:13.664Z,30.00
2018-07-26T15:40:41.821Z,29.50
2018-07-26T15:43:09.946Z,29.10
2018-07-26T15:45:38.258Z,29.00
2018-07-26T15:48:06.927Z,28.80
2018-07-26T15:50:35.389Z,28.70
2018-07-26T15:53:03.543Z,28.70
2018-07-26T15:55:31.730Z,28.70
2018-07-26T15:57:59.853Z,28.50
2018-07-26T16:00:27.988Z,28.60
2018-07-26T16:02:56.140Z,28.60
2018-07-26T16:05:24.292Z,28.40
2018-07-26T16:07:52.433Z,28.50
2018-07-26T16:10:20.638Z,28.50
2018-07-26T16:12:48.781Z,28.30
2018-07-26T16:15:16.925Z,28.30
2018-07-26T16:17:45.139Z,28.40
2018-07-26T16:20:13.206Z,28.20
2018-07-26T16:22:41.367Z,28.20
2018-07-26T16:25:10.753Z,28.20
2018-07-26T16:27:39.134Z,28.30
2018-07-26T16:30:09.370Z,28.20
2018-07-26T16:32:37.495Z,28.20
2018-07-26T16:35:06.215Z,28.20
2018-07-26T16:37:34.542Z,28.30
2018-07-26T16:40:02.769Z,28.40
2018-07-26T16:42:30.871Z,28.50
2018-07-26T16:44:59.194Z,28.50
2018-07-26T16:47:27.339Z,28.60
2018-07-26T16:49:55.462Z,28.50
2018-07-26T16:52:23.617Z,28.50
2018-07-26T16:54:51.747Z,28.40
2018-07-26T16:57:19.909Z,28.40
2018-07-26T16:59:48.041Z,28.40
2018-07-26T17:02:16.277Z,28.50
2018-07-26T17:04:44.451Z,28.60
2018-07-26T17:07:13.194Z,28.60
2018-07-26T17:09:41.429Z,28.80
2018-07-26T17:12:09.898Z,29.30
2018-07-26T17:14:38.038Z,29.50
2018-07-26T17:17:06.282Z,29.60
2018-07-26T17:19:34.875Z,29.60
2018-07-26T17:22:03.016Z,29.60
2018-07-26T17:24:31.158Z,29.70
2018-07-26T17:26:59.307Z,29.80
2018-07-26T17:29:27.434Z,29.90
2018-07-26T17:31:55.554Z,30.00
2018-07-26T17:34:23.689Z,30.20
2018-07-26T17:36:51.820Z,30.30
2018-07-26T17:39:20.006Z,30.20
2018-07-26T17:41:48.130Z,30.40
2018-07-26T17:44:16.269Z,30.50
2018-07-26T17:46:44.408Z,30.50
2018-07-26T17:49:12.553Z,30.70
2018-07-26T17:51:40.687Z,30.90
2018-07-26T17:54:08.839Z,31.30
2018-07-26T17:56:37.003Z,30.80
2018-07-26T17:59:05.426Z,30.70
2018-07-26T18:01:33.560Z,30.70
2018-07-26T18:04:01.742Z,30.80
2018-07-26T18:06:29.893Z,30.90
2018-07-26T18:08:58.034Z,30.80
2018-07-26T18:11:26.183Z,30.80
2018-07-26T18:13:54.357Z,30.90
2018-07-26T18:16:22.542Z,30.90
2018-07-26T18:18:50.694Z,31.10
2018-07-26T18:21:18.875Z,31.10
2018-07-26T18:23:47.025Z,31.20
2018-07-26T18:26:15.226Z,31.20
2018-07-26T18:28:43.297Z,31.10
2018-07-26T18:31:11.430Z,31.20
2018-07-26T18:33:39.607Z,31.20
2018-07-26T18:36:07.741Z,31.40
2018-07-26T18:38:35.890Z,31.50
2018-07-26T18:41:04.011Z,31.70
2018-07-26T18:43:32.202Z,31.70
2018-07-26T18:46:00.329Z,31.90
2018-07-26T18:48:28.509Z,31.90
2018-07-26T18:50:56.638Z,32.00
2018-07-26T18:53:24.782Z,32.10
2018-07-26T18:55:52.921Z,32.20
2018-07-26T18:58:21.056Z,32.40
2018-07-26T19:00:49.213Z,32.50
2018-07-26T19:03:17.370Z,32.50
2018-07-26T19:05:45.569Z,32.50
2018-07-26T19:08:13.747Z,32.70
2018-07-26T19:10:41.878Z,32.70
2018-07-26T19:13:10.008Z,32.90
2018-07-26T19:15:38.141Z,33.00
2018-07-26T19:18:06.298Z,33.00
2018-07-26T19:20:34.441Z,33.30
2018-07-26T19:23:02.584Z,33.60
2018-07-26T19:25:30.735Z,33.70
2018-07-26T19:27:58.906Z,33.80
2018-07-26T19:30:27.057Z,33.90
2018-07-26T19:32:55.202Z,34.10
2018-07-26T19:35:23.365Z,34.20
2018-07-26T19:37:51.497Z,34.40
2018-07-26T19:40:19.628Z,34.70
2018-07-26T19:42:47.774Z,34.70
2018-07-26T19:45:15.902Z,34.80
2018-07-26T19:47:44.029Z,35.00
2018-07-26T19:50:12.167Z,35.70
2018-07-26T19:52:40.319Z,35.40
2018-07-26T19:55:10.438Z,35.40
2018-07-26T19:57:38.610Z,35.60
2018-07-26T20:00:07.326Z,35.70
2018-07-26T20:02:36.279Z,35.70
2018-07-26T20:05:04.758Z,35.90
2018-07-26T20:07:32.901Z,36.00
2018-07-26T20:10:01.051Z,36.10
2018-07-26T20:12:29.166Z,36.10
2018-07-26T20:14:57.290Z,36.20
2018-07-26T20:17:25.439Z,36.30
2018-07-26T20:19:53.600Z,36.50
2018-07-26T20:22:21.723Z,35.90
2018-07-26T20:24:49.899Z,36.60
2018-07-26T20:27:18.025Z,36.70
2018-07-26T20:29:46.148Z,36.80
2018-07-26T20:32:14.278Z,36.90
2018-07-26T20:34:42.432Z,37.00
2018-07-26T20:37:10.573Z,37.10
2018-07-26T20:39:38.698Z,37.10
2018-07-26T20:42:06.841Z,37.30
2018-07-26T20:44:34.973Z,37.40
2018-07-26T20:47:03.101Z,37.40
2018-07-26T20:49:31.226Z,37.50
2018-07-26T20:51:59.370Z,37.50
2018-07-26T20:54:27.705Z,37.40
2018-07-26T20:56:55.838Z,37.50
2018-07-26T20:59:23.978Z,37.50
2018-07-26T21:01:52.101Z,37.70
2018-07-26T21:04:20.238Z,37.80
2018-07-26T21:06:48.370Z,37.80
2018-07-26T21:09:16.514Z,37.90
2018-07-26T21:11:45.265Z,37.90
2018-07-26T21:14:13.416Z,38.00
2018-07-26T21:16:41.550Z,38.00
2018-07-26T21:19:09.670Z,38.10
2018-07-26T21:21:37.820Z,38.20
2018-07-26T21:24:05.990Z,38.30
2018-07-26T21:26:34.089Z,38.40
2018-07-26T21:29:02.228Z,38.50
2018-07-26T21:31:30.363Z,38.50
2018-07-26T21:33:58.508Z,38.60
2018-07-26T21:36:26.642Z,38.70
2018-07-26T21:38:54.768Z,38.90
2018-07-26T21:41:22.897Z,39.00
2018-07-26T21:43:51.092Z,39.20
2018-07-26T21:46:19.273Z,39.10
2018-07-26T21:48:47.406Z,39.10
2018-07-26T21:51:15.537Z,39.20
2018-07-26T21:53:43.713Z,39.20
2018-07-26T21:56:11.874Z,39.20
2018-07-26T21:58:40.014Z,39.30
2018-07-26T22:01:08.140Z,39.40
2018-07-26T22:03:36.326Z,39.50
2018-07-26T22:06:04.474Z,39.60
2018-07-26T22:08:32.641Z,39.50
2018-07-26T22:11:00.762Z,39.70
2018-07-26T22:13:28.877Z,39.80
2018-07-26T22:15:57.052Z,39.90
2018-07-26T22:18:25.150Z,39.90
2018-07-26T22:20:53.287Z,39.90
2018-07-26T22:23:21.534Z,40.00
2018-07-26T22:25:50.454Z,40.10
2018-07-26T22:28:19.156Z,40.10
2018-07-26T22:30:47.744Z,40.10
2018-07-26T22:33:15.885Z,40.20
2018-07-26T22:35:44.275Z,40.30
2018-07-26T22:38:13.239Z,40.30
2018-07-26T22:40:41.395Z,40.50
2018-07-26T22:43:09.587Z,40.50
2018-07-26T22:45:38.110Z,40.50
2018-07-26T22:48:06.233Z,40.50
2018-07-26T22:50:34.366Z,40.60
2018-07-26T22:53:02.498Z,40.70
2018-07-26T22:55:30.700Z,40.80
2018-07-26T22:57:59.081Z,40.70
2018-07-26T23:00:27.232Z,40.70
2018-07-26T23:02:55.373Z,40.80
2018-07-26T23:05:23.535Z,40.70
2018-07-26T23:07:51.737Z,40.80
2018-07-26T23:10:19.861Z,40.90
2018-07-26T23:12:48.008Z,40.90
2018-07-26T23:15:16.152Z,40.90
2018-07-26T23:17:44.292Z,41.60
2018-07-26T23:20:12.458Z,40.90
2018-07-26T23:25:09.302Z,40.90
2018-07-26T23:27:37.446Z,40.80
2018-07-26T23:30:07.950Z,40.90
2018-07-26T23:32:36.112Z,40.90
2018-07-26T23:35:04.445Z,40.90
2018-07-26T23:37:32.581Z,40.80
2018-07-26T23:40:00.716Z,40.80
2018-07-26T23:42:28.865Z,40.90
2018-07-26T23:44:56.988Z,41.00
2018-07-26T23:47:25.129Z,41.00
2018-07-26T23:49:53.310Z,41.00
2018-07-26T23:52:21.450Z,41.00
2018-07-26T23:54:49.642Z,41.10
2018-07-26T23:57:17.788Z,41.10
2018-07-26T23:59:45.927Z,41.90
